Time;durP1;ratioP1;P1;durP2;ratioP2;P2;SDS_P1;SDS_P2;PMS_P1;PMS_P2;Temp;Humidity;BMP_temperature;BMP_pressure;BME280_temperature;BME280_humidity;BME280_pressure;Samples;Min_cycle;Max_cycle;Signal;HPM_P1;HPM_P2
2023/04/06 00:00:33;;;;;;;5.00;3.70;;;;;;;7.43;41.68;100075.69;4937396;29;20062;-83
2023/04/06 00:02:59;;;;;;;8.02;4.03;;;;;;;7.43;41.68;100068.72;4937232;29;20067;-83
2023/04/06 00:05:27;;;;;;;8.15;3.75;;;;;;;7.45;41.65;100078.25;4936768;29;20059;-81
2023/04/06 00:07:55;;;;;;;6.80;3.88;;;;;;;7.45;41.75;100080.88;4935483;29;20059;-82
2023/04/06 00:10:22;;;;;;;5.80;3.80;;;;;;;7.46;42.06;100069.47;4937104;29;20121;-83
2023/04/06 00:12:48;;;;;;;6.28;3.58;;;;;;;7.46;41.87;100072.09;4936857;29;20052;-82
2023/04/06 00:15:15;;;;;;;7.10;3.97;;;;;;;7.47;41.81;100065.97;4936483;29;20062;-83
2023/04/06 00:17:42;;;;;;;6.18;4.15;;;;;;;7.48;41.78;100065.06;4935058;29;20473;-82
2023/04/06 00:20:09;;;;;;;6.30;4.03;;;;;;;7.48;41.86;100067.69;4919876;29;20079;-83
2023/04/06 00:22:36;;;;;;;5.45;3.80;;;;;;;7.47;41.69;100064.19;4935470;29;20493;-83
2023/04/06 00:25:02;;;;;;;6.18;3.70;;;;;;;7.47;41.81;100060.75;4936261;29;20505;-82
2023/04/06 00:27:29;;;;;;;5.72;3.83;;;;;;;7.46;41.57;100056.38;4934949;29;20067;-83
2023/04/06 00:29:56;;;;;;;5.05;3.90;;;;;;;7.46;41.53;100061.63;4936541;29;20064;-84
2023/04/06 00:32:22;;;;;;;8.73;4.88;;;;;;;7.43;41.23;100059.97;4936763;29;20127;-83
2023/04/06 00:34:49;;;;;;;6.38;4.10;;;;;;;7.40;41.54;100045.25;4936239;29;20097;-84
2023/04/06 00:37:15;;;;;;;6.53;4.38;;;;;;;7.38;41.35;100047.09;4935093;29;20068;-82
2023/04/06 00:39:42;;;;;;;6.00;4.00;;;;;;;7.37;41.69;100045.34;4936498;29;20115;-83
2023/04/06 00:42:15;;;;;;;7.80;4.43;;;;;;;7.35;41.23;100048.94;4936375;29;20669;-83
2023/04/06 00:44:41;;;;;;;5.72;4.25;;;;;;;7.36;41.73;100042.81;4935072;29;20119;-84
2023/04/06 00:47:09;;;;;;;6.47;4.38;;;;;;;7.36;42.01;100040.22;4935790;29;20070;-82
2023/04/06 00:49:35;;;;;;;6.97;4.70;;;;;;;7.36;42.22;100035.81;4936206;29;20068;-83
2023/04/06 00:52:02;;;;;;;7.95;3.92;;;;;;;7.35;42.12;100034.09;4936088;29;20496;-83
2023/04/06 00:54:29;;;;;;;8.20;4.70;;;;;;;7.35;42.09;100031.47;4934744;29;20115;-83
2023/04/06 00:56:56;;;;;;;6.78;4.47;;;;;;;7.36;42.26;100029.72;4935234;29;20063;-85
2023/04/06 00:59:22;;;;;;;9.07;4.63;;;;;;;7.34;42.18;100014.06;4934954;29;20097;-83
2023/04/06 01:01:49;;;;;;;11.48;5.05;;;;;;;7.36;42.18;100016.63;4936063;29;20064;-82
2023/04/06 01:04:16;;;;;;;6.75;4.38;;;;;;;7.36;41.98;100027.13;4935965;29;20055;-84
2023/04/06 01:06:42;;;;;;;8.02;4.90;;;;;;;7.35;41.97;100021.00;4935563;29;20063;-84
2023/04/06 01:09:09;;;;;;;8.63;4.78;;;;;;;7.34;41.92;100010.59;4935667;29;20059;-83
2023/04/06 01:11:35;;;;;;;8.27;4.35;;;;;;;7.34;42.38;100015.81;4935928;29;20063;-83
2023/04/06 01:14:03;;;;;;;6.30;4.78;;;;;;;7.32;42.47;100010.66;4935919;29;20156;-82
2023/04/06 01:16:30;;;;;;;7.00;5.10;;;;;;;7.32;42.15;100001.97;4935764;29;20052;-82
2023/04/06 01:18:56;;;;;;;7.38;5.20;;;;;;;7.29;42.11;99998.53;4941621;29;20567;-83
2023/04/06 01:21:23;;;;;;;7.30;4.78;;;;;;;7.28;42.31;100009.06;4933169;29;20528;-82
2023/04/06 01:23:50;;;;;;;7.43;5.10;;;;;;;7.27;42.46;100004.75;4954652;28;20091;-82
2023/04/06 01:26:16;;;;;;;10.15;5.43;;;;;;;7.26;42.60;99998.63;4954455;29;20121;-82
2023/04/06 01:28:44;;;;;;;16.65;5.25;;;;;;;7.25;42.37;100002.19;4954379;28;20488;-82
2023/04/06 01:31:10;;;;;;;7.78;4.72;;;;;;;7.24;42.19;100004.84;4954791;28;20114;-81
2023/04/06 01:33:37;;;;;;;7.75;4.80;;;;;;;7.22;42.07;99999.66;4954666;28;20575;-81
2023/04/06 01:36:04;;;;;;;7.28;4.50;;;;;;;7.20;42.25;99992.78;4936982;29;20059;-83
2023/04/06 01:38:31;;;;;;;6.70;4.20;;;;;;;7.16;42.16;100003.41;4936906;28;20133;-82
2023/04/06 01:40:57;;;;;;;6.15;4.60;;;;;;;7.14;42.28;99989.50;4953409;29;20063;-82
2023/04/06 01:43:24;;;;;;;7.78;4.82;;;;;;;7.09;42.56;99986.22;4953278;28;20079;-82
2023/04/06 01:45:50;;;;;;;6.07;4.75;;;;;;;7.08;42.37;99986.28;4953714;28;20496;-82
2023/04/06 01:48:18;;;;;;;7.50;4.90;;;;;;;7.04;42.10;99985.56;4954086;29;20093;-82
2023/04/06 01:50:45;;;;;;;7.97;4.60;;;;;;;7.02;42.49;99980.38;4954152;29;20496;-82
2023/04/06 01:53:11;;;;;;;10.18;5.00;;;;;;;7.01;42.89;99985.66;4952972;28;20059;-81
2023/04/06 01:55:38;;;;;;;6.15;4.57;;;;;;;7.00;43.03;99981.34;4951558;29;20066;-82
2023/04/06 01:58:04;;;;;;;6.95;4.90;;;;;;;6.97;43.01;99974.47;4946016;28;20102;-82
2023/04/06 02:00:31;;;;;;;6.25;4.70;;;;;;;6.97;42.83;99973.59;4941524;29;20519;-83
2023/04/06 02:02:57;;;;;;;6.22;5.00;;;;;;;6.95;42.56;99963.19;4951206;28;20051;-82
2023/04/06 02:05:25;;;;;;;6.22;5.10;;;;;;;6.93;42.87;99970.25;4953593;28;20059;-81
2023/04/06 02:07:52;;;;;;;6.95;4.65;;;;;;;6.93;43.08;99977.25;4952483;28;20058;-82
2023/04/06 02:10:18;;;;;;;5.57;4.38;;;;;;;6.90;43.38;99968.63;4954113;28;20062;-82
2023/04/06 02:12:45;;;;;;;6.45;4.88;;;;;;;6.88;43.28;99973.03;4952518;29;20059;-81
2023/04/06 02:15:13;;;;;;;7.57;4.35;;;;;;;6.88;43.49;99965.19;4953315;29;20059;-83
2023/04/06 02:17:40;;;;;;;10.85;4.75;;;;;;;6.86;43.09;99964.41;4948994;28;20052;-82
2023/04/06 02:20:08;;;;;;;8.38;4.93;;;;;;;6.84;43.47;99963.59;4934602;29;20064;-83
2023/04/06 02:22:35;;;;;;;6.65;4.32;;;;;;;6.83;43.22;99961.91;4933139;29;20679;-81
2023/04/06 02:25:02;;;;;;;8.73;5.03;;;;;;;6.81;43.26;99966.34;4934248;29;20766;-82
2023/04/06 02:27:29;;;;;;;5.93;4.65;;;;;;;6.78;43.47;99963.84;4932858;29;20056;-81
2023/04/06 02:29:55;;;;;;;23.83;6.30;;;;;;;6.77;43.76;99963.00;4934815;29;20059;-82
2023/04/06 02:32:21;;;;;;;7.55;4.78;;;;;;;6.76;43.69;99968.28;4933054;29;20111;-82
2023/04/06 02:34:48;;;;;;;7.60;5.22;;;;;;;6.75;43.40;99961.34;4934054;29;20063;-84
2023/04/06 02:37:14;;;;;;;6.93;5.07;;;;;;;6.73;43.67;99965.78;4934028;29;20059;-82
2023/04/06 02:39:41;;;;;;;6.95;4.88;;;;;;;6.70;43.83;99960.66;4917433;29;20155;-82
2023/04/06 02:42:08;;;;;;;8.65;5.18;;;;;;;6.69;43.71;99958.97;4934155;29;20055;-83
2023/04/06 02:44:35;;;;;;;7.45;5.28;;;;;;;6.67;43.93;99958.16;4934142;29;20520;-83
2023/04/06 02:47:01;;;;;;;6.93;4.68;;;;;;;6.64;44.02;99954.75;4933362;29;20052;-83
2023/04/06 02:49:28;;;;;;;12.00;5.53;;;;;;;6.62;44.09;99951.34;4932947;29;20055;-82
2023/04/06 02:51:54;;;;;;;8.48;5.05;;;;;;;6.61;43.94;99946.16;4934220;29;20066;-82
2023/04/06 02:54:21;;;;;;;8.48;5.70;;;;;;;6.58;43.78;99949.75;4933907;29;20060;-81
2023/04/06 02:56:47;;;;;;;8.18;5.13;;;;;;;6.57;43.99;99937.59;4933023;29;20060;-82
2023/04/06 02:59:14;;;;;;;8.23;4.90;;;;;;;6.56;43.98;99945.47;4934191;29;20055;-83
2023/04/06 03:01:40;;;;;;;7.35;4.45;;;;;;;6.55;44.22;99947.25;4933767;29;20154;-83
2023/04/06 03:04:07;;;;;;;8.85;5.10;;;;;;;6.53;43.94;99938.59;4916917;29;20115;-83
2023/04/06 03:06:34;;;;;;;7.80;5.15;;;;;;;6.52;43.92;99944.75;4915337;29;20063;-82
2023/04/06 03:09:00;;;;;;;6.60;4.75;;;;;;;6.51;44.10;99945.69;4939114;28;20060;-83
2023/04/06 03:11:27;;;;;;;10.25;5.82;;;;;;;6.47;44.09;99934.44;4941147;28;20056;-83
2023/04/06 03:13:53;;;;;;;8.75;5.25;;;;;;;6.48;44.14;99943.16;4949040;29;20126;-83
2023/04/06 03:16:20;;;;;;;6.70;4.93;;;;;;;6.47;44.18;99944.06;4952280;28;20055;-82
2023/04/06 03:18:47;;;;;;;6.65;5.18;;;;;;;6.44;44.46;99938.94;4932967;29;20055;-82
2023/04/06 03:21:15;;;;;;;22.63;5.95;;;;;;;6.42;44.29;99936.38;4933656;29;20071;-82
2023/04/06 03:23:42;;;;;;;29.92;7.22;;;;;;;6.42;44.15;99938.16;4931427;29;20083;-82
2023/04/06 03:26:09;;;;;;;11.40;5.25;;;;;;;6.40;44.19;99940.84;4933490;29;20412;-84
2023/04/06 03:28:36;;;;;;;8.07;5.20;;;;;;;6.41;44.32;99941.66;4933060;29;20060;-83
2023/04/06 03:31:02;;;;;;;15.75;5.38;;;;;;;6.39;44.46;99934.75;4932234;29;20075;-82
2023/04/06 03:33:29;;;;;;;11.15;4.95;;;;;;;6.38;44.58;99933.03;4933599;29;20060;-83
2023/04/06 03:35:55;;;;;;;9.75;5.57;;;;;;;6.37;44.35;99939.19;4933278;29;20059;-82
2023/04/06 03:38:22;;;;;;;9.23;5.57;;;;;;;6.37;44.18;99935.72;4933080;29;20139;-82
2023/04/06 03:40:48;;;;;;;8.70;5.53;;;;;;;6.35;44.59;99935.75;4933689;29;20055;-82
2023/04/06 03:43:15;;;;;;;9.45;5.03;;;;;;;6.35;44.33;99941.00;4916358;29;20051;-81
2023/04/06 03:45:41;;;;;;;7.05;5.45;;;;;;;6.34;44.30;99936.69;4932732;29;20056;-83
2023/04/06 03:48:08;;;;;;;8.38;5.28;;;;;;;6.34;44.65;99938.44;4932973;29;20055;-81
2023/04/06 03:50:35;;;;;;;11.90;5.57;;;;;;;6.32;44.96;99930.63;4933182;29;20059;-83
2023/04/06 03:53:02;;;;;;;8.45;5.20;;;;;;;6.31;44.20;99936.78;4933424;29;20059;-82
2023/04/06 03:55:30;;;;;;;21.02;6.70;;;;;;;6.31;44.52;99935.94;4933008;29;20074;-81
2023/04/06 03:57:56;;;;;;;7.50;5.40;;;;;;;6.30;44.51;99931.59;4932829;29;20067;-82
2023/04/06 04:00:23;;;;;;;7.57;5.55;;;;;;;6.29;44.67;99932.53;4624355;23;20046;-78
2023/04/06 04:02:49;;;;;;;7.32;5.25;;;;;;;6.28;44.60;99936.06;4991077;28;20117;-79
2023/04/06 04:05:16;;;;;;;9.02;5.38;;;;;;;6.25;44.71;99932.63;4990652;28;20050;-79
2023/04/06 04:07:42;;;;;;;9.10;5.57;;;;;;;6.23;44.88;99928.38;4990401;28;20050;-79
2023/04/06 04:10:09;;;;;;;8.95;5.65;;;;;;;6.21;44.94;99928.41;4990932;28;20050;-81
2023/04/06 04:12:36;;;;;;;10.07;6.13;;;;;;;6.18;44.83;99923.31;4991016;28;20082;-79
2023/04/06 04:15:03;;;;;;;7.53;5.47;;;;;;;6.16;44.85;99932.13;4990451;28;20807;-80
2023/04/06 04:17:29;;;;;;;8.40;5.55;;;;;;;6.12;45.03;99932.22;4990746;28;20042;-79
2023/04/06 04:19:56;;;;;;;20.45;6.57;;;;;;;6.10;44.98;99933.19;4990933;28;20056;-80
2023/04/06 04:22:23;;;;;;;12.88;5.80;;;;;;;6.07;44.79;99938.53;4990378;28;20054;-79
2023/04/06 04:24:49;;;;;;;10.93;6.43;;;;;;;6.04;45.11;99934.25;4990510;28;20082;-80
2023/04/06 04:27:16;;;;;;;11.00;6.40;;;;;;;6.03;45.11;99936.88;4990352;28;20054;-78
2023/04/06 04:29:43;;;;;;;10.90;6.35;;;;;;;5.99;44.94;99931.75;4989365;28;20054;-80
2023/04/06 04:32:10;;;;;;;15.02;7.10;;;;;;;5.99;45.22;99930.94;4990775;28;20509;-79
2023/04/06 04:34:39;;;;;;;8.75;5.85;;;;;;;5.96;44.93;99931.88;4991334;28;20928;-78
2023/04/06 04:37:06;;;;;;;10.35;6.40;;;;;;;5.94;44.93;99933.69;4993837;28;20055;-79
2023/04/06 04:39:33;;;;;;;9.88;6.43;;;;;;;5.91;45.02;99939.00;4994246;28;20150;-80
2023/04/06 04:41:59;;;;;;;9.05;6.13;;;;;;;5.87;45.09;99940.88;4993062;28;20054;-80
2023/04/06 04:44:26;;;;;;;22.58;7.30;;;;;;;5.85;45.30;99939.25;4994522;28;20053;-79
2023/04/06 04:46:52;;;;;;;11.75;6.68;;;;;;;5.82;45.48;99939.34;4993521;28;20290;-79
2023/04/06 04:49:19;;;;;;;10.20;5.85;;;;;;;5.81;45.42;99933.28;4993229;28;20054;-79
2023/04/06 04:51:45;;;;;;;12.52;6.60;;;;;;;5.80;45.51;99934.16;4994046;28;20457;-80
2023/04/06 04:54:12;;;;;;;9.27;6.72;;;;;;;5.80;45.63;99939.38;5004021;28;20053;-77
2023/04/06 04:56:39;;;;;;;47.53;7.85;;;;;;;5.78;45.83;99932.50;5004351;28;20057;-79
2023/04/06 04:59:05;;;;;;;15.65;7.57;;;;;;;5.77;46.06;99936.91;5013860;28;20133;-79
2023/04/06 05:01:32;;;;;;;9.63;5.93;;;;;;;5.76;45.78;99935.19;5013861;28;20065;-79
2023/04/06 05:04:17;;;;;;;10.07;6.78;;;;;;;5.76;45.90;99937.81;5013379;28;20049;-78
2023/04/06 05:06:43;;;;;;;12.23;6.32;;;;;;;5.75;45.91;99928.25;5012739;28;20049;-79
2023/04/06 05:09:10;;;;;;;11.15;6.40;;;;;;;5.76;46.04;99934.34;5013385;28;20042;-79
2023/04/06 05:11:36;;;;;;;7.43;5.15;;;;;;;5.76;45.72;99939.56;5013578;28;20042;-79
2023/04/06 05:14:03;;;;;;;9.98;6.10;;;;;;;5.76;45.95;99935.19;5013354;28;20107;-79
2023/04/06 05:16:29;;;;;;;20.95;6.97;;;;;;;5.77;45.96;99931.66;5012913;28;20514;-79
2023/04/06 05:18:56;;;;;;;13.48;6.78;;;;;;;5.78;46.14;99932.50;5011815;28;20050;-78
2023/04/06 05:21:23;;;;;;;10.75;6.35;;;;;;;5.80;46.32;99930.72;4985920;28;20062;-80
2023/04/06 05:23:53;;;;;;;26.98;7.35;;;;;;;5.81;46.33;99935.88;4993837;28;20117;-80
2023/04/06 05:26:20;;;;;;;10.70;6.57;;;;;;;5.82;46.30;99940.19;4993309;28;20053;-78
2023/04/06 05:28:46;;;;;;;9.38;6.32;;;;;;;5.83;46.32;99934.06;4993341;28;20043;-80
2023/04/06 05:31:14;;;;;;;11.75;6.40;;;;;;;5.84;46.25;99922.69;5000290;28;20054;-79
2023/04/06 05:33:41;;;;;;;8.80;6.40;;;;;;;5.85;46.22;99932.25;5010916;28;20053;-79
2023/04/06 05:36:08;;;;;;;9.77;5.97;;;;;;;5.86;46.04;99931.34;5012445;28;20477;-79
2023/04/06 05:38:35;;;;;;;12.65;6.38;;;;;;;5.87;45.90;99925.22;4995100;28;20085;-79
2023/04/06 05:41:01;;;;;;;9.38;6.28;;;;;;;5.84;45.83;99922.69;5012744;28;20049;-78
2023/04/06 05:43:28;;;;;;;11.10;6.32;;;;;;;5.83;45.87;99914.94;5012646;28;20046;-79
2023/04/06 05:45:55;;;;;;;10.27;6.45;;;;;;;5.82;45.94;99932.38;4994105;28;20144;-78
2023/04/06 05:48:21;;;;;;;11.23;6.40;;;;;;;5.82;46.12;99923.66;5012349;28;20042;-78
2023/04/06 05:50:50;;;;;;;11.65;6.55;;;;;;;5.81;46.17;99930.66;5012449;28;20049;-79
2023/04/06 05:53:17;;;;;;;11.07;6.20;;;;;;;5.83;46.12;99926.22;4995106;28;20116;-78
2023/04/06 05:55:43;;;;;;;10.20;6.68;;;;;;;5.84;46.19;99933.16;4991661;28;20084;-79
2023/04/06 05:58:10;;;;;;;24.42;7.45;;;;;;;5.87;46.11;99932.22;5000538;28;20046;-78
2023/04/06 06:00:37;;;;;;;18.20;6.55;;;;;;;5.89;46.35;99927.78;5003565;28;20050;-80
2023/04/06 06:03:05;;;;;;;13.13;6.60;;;;;;;5.92;46.19;99924.19;4994237;28;20510;-80
2023/04/06 06:05:32;;;;;;;9.82;6.45;;;;;;;5.96;46.20;99920.56;5004611;28;20061;-79
2023/04/06 06:07:58;;;;;;;11.85;6.55;;;;;;;5.99;46.20;99920.47;4993324;28;20390;-79
2023/04/06 06:10:25;;;;;;;11.18;6.35;;;;;;;6.02;46.37;99922.97;5011651;28;20086;-80
2023/04/06 06:12:52;;;;;;;10.60;6.93;;;;;;;6.05;45.93;99925.50;5011342;28;20471;-79
2023/04/06 06:15:18;;;;;;;14.82;7.30;;;;;;;6.08;46.15;99927.16;5009859;28;20058;-79
2023/04/06 06:17:45;;;;;;;9.07;6.30;;;;;;;6.11;46.00;99919.22;5011028;28;20403;-79
2023/04/06 06:20:12;;;;;;;12.13;7.30;;;;;;;6.12;46.07;99921.78;5011289;28;20069;-79
2023/04/06 06:22:40;;;;;;;11.68;6.35;;;;;;;6.13;46.12;99922.59;5010406;28;20137;-79
2023/04/06 06:25:06;;;;;;;16.63;6.82;;;;;;;6.16;46.17;99921.69;5011626;28;20050;-80
2023/04/06 06:27:33;;;;;;;21.15;7.63;;;;;;;6.19;46.34;99921.53;5011546;28;20057;-79
2023/04/06 06:30:00;;;;;;;10.05;7.03;;;;;;;6.23;46.37;99923.13;5011787;28;20058;-79
2023/04/06 06:32:26;;;;;;;10.05;6.78;;;;;;;6.28;46.18;99915.97;5011701;28;20376;-80
2023/04/06 06:34:53;;;;;;;10.38;6.80;;;;;;;6.33;45.98;99929.75;5010893;28;20053;-79
2023/04/06 06:37:19;;;;;;;9.75;6.82;;;;;;;6.37;46.11;99926.13;4984976;28;20046;-79
2023/04/06 06:39:46;;;;;;;19.38;7.45;;;;;;;6.42;46.07;99917.25;4999875;28;20042;-79
2023/04/06 06:42:13;;;;;;;9.90;6.25;;;;;;;6.48;45.90;99922.25;5000187;28;20073;-79
2023/04/06 06:44:40;;;;;;;10.45;6.50;;;;;;;6.52;45.99;99923.84;4999932;28;20050;-78
2023/04/06 06:47:07;;;;;;;19.00;7.47;;;;;;;6.58;45.98;99922.75;4996165;28;20049;-79
2023/04/06 06:49:33;;;;;;;10.38;6.47;;;;;;;6.62;45.82;99925.19;5003252;28;20056;-78
2023/04/06 06:52:00;;;;;;;10.25;6.90;;;;;;;6.67;45.55;99927.63;5011579;28;20050;-79
2023/04/06 06:54:26;;;;;;;13.95;7.00;;;;;;;6.72;45.61;99920.47;5002419;28;20042;-79
2023/04/06 06:56:54;;;;;;;11.50;6.43;;;;;;;6.76;45.64;99919.44;5005896;28;20062;-78
2023/04/06 06:59:21;;;;;;;12.13;6.40;;;;;;;6.83;45.70;99921.78;5004881;28;20583;-80
2023/04/06 07:01:49;;;;;;;8.85;6.55;;;;;;;6.86;45.47;99917.31;5010056;28;20091;-80
2023/04/06 07:04:16;;;;;;;10.60;6.68;;;;;;;6.92;45.74;99913.63;4992303;28;20061;-77
2023/04/06 07:06:43;;;;;;;14.25;7.95;;;;;;;6.99;45.68;99920.28;5009146;28;20097;-78
2023/04/06 07:09:10;;;;;;;15.48;7.20;;;;;;;7.03;45.54;99913.19;5009913;28;20132;-77
2023/04/06 07:11:36;;;;;;;12.02;7.43;;;;;;;7.09;45.14;99910.31;5011223;28;20141;-77
2023/04/06 07:14:03;;;;;;;10.50;6.78;;;;;;;7.14;45.63;99918.81;5011043;28;20133;-77
2023/04/06 07:16:29;;;;;;;14.30;7.70;;;;;;;7.19;45.68;99909.94;5011009;28;20052;-76
2023/04/06 07:18:56;;;;;;;11.30;7.38;;;;;;;7.24;45.46;99913.22;5010767;28;20157;-76
2023/04/06 07:21:23;;;;;;;11.27;7.30;;;;;;;7.28;45.38;99907.81;5011066;28;20050;-76
2023/04/06 07:23:50;;;;;;;12.38;7.05;;;;;;;7.34;45.37;99914.56;5010980;28;20089;-76
2023/04/06 07:26:17;;;;;;;15.80;7.82;;;;;;;7.41;45.40;99917.78;5010620;28;20092;-78
2023/04/06 07:28:44;;;;;;;11.52;7.53;;;;;;;7.45;45.42;99911.50;5010551;28;20058;-76
2023/04/06 07:31:11;;;;;;;13.02;8.20;;;;;;;7.53;45.31;99914.66;5011274;28;20057;-75
2023/04/06 07:33:37;;;;;;;13.05;7.70;;;;;;;7.58;45.60;99908.38;4993824;28;20116;-77
2023/04/06 07:36:05;;;;;;;13.07;8.18;;;;;;;7.64;45.55;99911.59;5009688;28;20479;-76
2023/04/06 07:38:31;;;;;;;11.45;7.75;;;;;;;7.69;45.54;99914.84;5010751;28;20210;-76
2023/04/06 07:40:58;;;;;;;14.35;7.63;;;;;;;7.75;45.42;99907.63;5010903;28;20140;-78
2023/04/06 07:43:25;;;;;;;10.55;8.02;;;;;;;7.82;45.36;99916.94;4993256;28;20565;-76
2023/04/06 07:45:51;;;;;;;11.10;7.60;;;;;;;7.89;45.30;99907.06;5010569;28;20053;-76
2023/04/06 07:48:18;;;;;;;11.25;7.45;;;;;;;7.95;45.36;99912.88;5010357;28;20049;-77
2023/04/06 07:50:45;;;;;;;17.80;8.63;;;;;;;8.01;45.33;99913.53;5010788;28;20100;-76
2023/04/06 07:53:11;;;;;;;13.15;8.38;;;;;;;8.04;45.29;99910.78;5010795;28;20049;-77
2023/04/06 07:55:38;;;;;;;17.65;8.40;;;;;;;8.06;44.60;99915.03;5010239;28;20054;-76
2023/04/06 07:58:05;;;;;;;13.93;7.88;;;;;;;8.11;45.05;99917.44;5010235;28;20050;-77
2023/04/06 08:00:32;;;;;;;12.73;7.65;;;;;;;8.17;45.04;99925.03;5010441;28;20482;-76
2023/04/06 08:02:58;;;;;;;11.23;7.65;;;;;;;8.22;45.17;99914.34;5010849;28;20078;-76
2023/04/06 08:05:25;;;;;;;11.52;7.72;;;;;;;8.29;44.92;99915.78;4990604;28;20058;-76
2023/04/06 08:07:51;;;;;;;16.98;8.10;;;;;;;8.34;45.16;99916.41;4990654;28;20054;-76
2023/04/06 08:10:18;;;;;;;14.63;8.20;;;;;;;8.44;45.28;99923.84;4994071;28;20054;-76
2023/04/06 08:12:44;;;;;;;11.82;7.07;;;;;;;8.51;44.97;99916.56;4995004;28;20046;-76
2023/04/06 08:15:11;;;;;;;15.88;8.30;;;;;;;8.56;44.74;99912.84;4994581;28;20089;-76
2023/04/06 08:17:38;;;;;;;10.63;7.68;;;;;;;8.64;44.83;99915.13;4994487;28;20058;-76
2023/04/06 08:20:05;;;;;;;11.73;8.02;;;;;;;8.70;44.32;99911.34;4994524;28;20506;-77
2023/04/06 08:22:31;;;;;;;12.77;8.02;;;;;;;8.77;44.85;99914.53;4994679;28;20054;-77
2023/04/06 08:24:58;;;;;;;11.13;7.40;;;;;;;8.82;44.42;99917.81;4994095;28;20096;-78
2023/04/06 08:27:25;;;;;;;11.00;7.72;;;;;;;8.89;44.46;99918.38;4994450;28;20086;-76
2023/04/06 08:29:51;;;;;;;15.63;8.60;;;;;;;8.95;44.48;99918.06;4994659;28;20050;-76
2023/04/06 08:32:18;;;;;;;11.77;8.00;;;;;;;9.01;44.56;99915.13;4993331;28;20050;-78
2023/04/06 08:34:45;;;;;;;13.05;8.10;;;;;;;9.07;44.67;99917.47;4994187;28;20054;-77
2023/04/06 08:37:11;;;;;;;12.43;7.85;;;;;;;9.14;44.58;99907.53;4993973;28;20054;-76
2023/04/06 08:39:38;;;;;;;12.95;7.25;;;;;;;9.22;44.70;99912.41;4994380;28;20084;-76
2023/04/06 08:42:15;;;;;;;14.43;7.78;;;;;;;9.29;43.81;99905.94;4994400;28;20060;-77
2023/04/06 08:44:42;;;;;;;11.45;7.68;;;;;;;9.41;44.54;99907.09;4993912;28;20494;-77
2023/04/06 08:47:09;;;;;;;12.63;7.60;;;;;;;9.51;44.47;99905.72;4993601;28;20047;-77
2023/04/06 08:49:37;;;;;;;12.45;7.88;;;;;;;9.60;44.35;99909.66;4994248;28;20054;-76
2023/04/06 08:52:07;;;;;;;11.98;7.60;;;;;;;9.70;43.75;99901.28;4993926;28;20112;-77
2023/04/06 08:54:34;;;;;;;11.85;7.38;;;;;;;9.82;44.01;99905.94;4993977;28;20673;-77
2023/04/06 08:57:02;;;;;;;13.82;7.68;;;;;;;9.90;43.52;99903.75;4993463;28;20133;-76
2023/04/06 08:59:29;;;;;;;15.30;8.70;;;;;;;10.01;43.93;99908.44;4976828;28;20055;-76
2023/04/06 09:01:56;;;;;;;12.98;7.78;;;;;;;10.10;43.78;99903.63;4960583;28;20392;-77
2023/04/06 09:04:23;;;;;;;14.23;8.85;;;;;;;10.19;44.07;99900.53;4993871;28;20133;-77
2023/04/06 09:06:50;;;;;;;14.73;8.10;;;;;;;10.28;43.70;99905.28;4992703;28;20053;-77
2023/04/06 09:09:16;;;;;;;10.93;7.82;;;;;;;10.39;43.81;99909.16;4994064;28;20058;-77
2023/04/06 09:11:44;;;;;;;12.70;7.57;;;;;;;10.51;43.74;99912.91;4994079;28;20069;-76
2023/04/06 09:14:10;;;;;;;11.25;8.00;;;;;;;10.62;43.73;99905.25;4993844;28;20075;-76
2023/04/06 09:16:41;;;;;;;12.73;8.27;;;;;;;10.73;43.05;99904.66;4992950;28;20054;-77
2023/04/06 09:19:09;;;;;;;10.23;7.07;;;;;;;10.88;43.57;99902.13;4976221;28;20050;-76
2023/04/06 09:21:36;;;;;;;9.55;7.03;;;;;;;11.03;43.67;99903.06;4992249;28;20057;-77
2023/04/06 09:24:04;;;;;;;12.15;7.72;;;;;;;11.18;43.38;99903.97;4993329;28;20475;-77
2023/04/06 09:26:33;;;;;;;15.32;8.00;;;;;;;11.32;43.67;99896.13;4993125;28;20104;-77
2023/04/06 09:29:01;;;;;;;9.57;7.18;;;;;;;11.49;43.47;99894.28;4989445;28;20406;-77
2023/04/06 09:31:30;;;;;;;12.70;8.07;;;;;;;11.62;43.26;99893.56;4993195;28;20058;-76
2023/04/06 09:33:57;;;;;;;15.75;8.55;;;;;;;11.78;43.38;99896.97;4992088;28;20092;-76
2023/04/06 09:36:35;;;;;;;12.23;8.20;;;;;;;11.88;41.55;99892.00;4992904;28;20050;-76
2023/04/06 09:39:03;;;;;;;10.70;8.15;;;;;;;12.02;42.25;99885.88;4993267;28;20094;-78
2023/04/06 09:41:31;;;;;;;12.85;8.07;;;;;;;12.12;42.45;99887.03;4992015;28;20054;-78
2023/04/06 09:44:11;;;;;;;12.68;8.68;;;;;;;12.21;41.20;99883.00;4975805;28;20061;-76
2023/04/06 09:46:40;;;;;;;13.32;8.93;;;;;;;12.34;41.59;99875.16;4992526;28;20054;-77
2023/04/06 09:49:30;;;;;;;14.75;9.38;;;;;;;12.46;40.51;99881.47;4993356;28;20406;-77
2023/04/06 09:52:06;;;;;;;13.55;8.95;;;;;;;12.55;40.41;99873.88;4993027;28;20089;-76
2023/04/06 09:54:35;;;;;;;11.32;8.27;;;;;;;12.65;41.24;99867.09;4975668;28;20054;-78
2023/04/06 09:57:20;;;;;;;12.48;8.38;;;;;;;12.77;41.10;99873.38;4992582;28;20050;-76
2023/04/06 10:00:12;;;;;;;12.52;9.35;;;;;;;12.91;40.02;99869.84;5067028;23;20058;-83
2023/04/06 10:03:19;;;;;;;14.00;9.53;;;;;;;13.11;40.98;99872.97;4972723;28;20059;-84
2023/04/06 10:06:04;;;;;;;11.95;9.02;;;;;;;13.28;40.18;99866.56;4931819;29;20622;-83
2023/04/06 10:08:34;;;;;;;14.33;9.80;;;;;;;13.43;40.64;99862.06;4951541;29;20417;-84
2023/04/06 10:11:02;;;;;;;17.13;11.00;;;;;;;13.54;41.45;99866.66;4968411;28;20403;-83
2023/04/06 10:13:28;;;;;;;19.50;11.45;;;;;;;13.64;40.91;99867.69;4953864;29;20070;-83
2023/04/06 10:15:55;;;;;;;18.48;11.57;;;;;;;13.77;40.69;99862.44;4953263;29;20110;-84
2023/04/06 10:18:22;;;;;;;14.60;10.38;;;;;;;13.90;40.52;99872.16;4953016;29;20134;-84
2023/04/06 10:20:53;;;;;;;15.98;11.30;;;;;;;14.02;39.56;99870.47;4952222;28;20146;-84
2023/04/06 10:23:30;;;;;;;14.90;10.60;;;;;;;14.08;38.28;99870.03;4968101;28;20063;-84
2023/04/06 10:26:00;;;;;;;14.75;10.82;;;;;;;14.24;39.92;99879.56;4953144;29;20051;-84
2023/04/06 10:28:35;;;;;;;19.50;13.07;;;;;;;14.32;37.67;99877.22;4953187;29;20059;-84
2023/04/06 10:31:05;;;;;;;20.40;13.30;;;;;;;14.41;38.46;99871.25;4968105;28;20455;-84
2023/04/06 10:33:32;;;;;;;17.83;12.50;;;;;;;14.53;39.58;99866.00;4967593;28;20059;-84
2023/04/06 10:36:10;;;;;;;19.85;14.43;;;;;;;14.60;38.33;99872.56;4953009;29;20063;-84
2023/04/06 10:38:38;;;;;;;21.95;14.50;;;;;;;14.73;39.12;99862.78;4952841;29;20083;-84
2023/04/06 10:41:12;;;;;;;21.05;14.80;;;;;;;14.83;36.47;99865.63;4953063;28;20055;-83
2023/04/06 10:43:41;;;;;;;20.70;13.90;;;;;;;14.94;38.46;99864.00;4956913;28;20453;-84
2023/04/06 10:46:09;;;;;;;20.15;15.13;;;;;;;15.03;38.16;99863.31;4970926;28;20398;-84
2023/04/06 10:48:41;;;;;;;19.83;15.05;;;;;;;15.09;37.38;99862.88;4971789;28;20462;-84
2023/04/06 10:51:10;;;;;;;18.67;14.32;;;;;;;15.17;37.45;99858.81;4972150;28;20153;-84
2023/04/06 10:53:37;;;;;;;17.73;12.90;;;;;;;15.28;38.77;99852.69;4971992;28;20059;-82
2023/04/06 10:56:11;;;;;;;19.88;15.02;;;;;;;15.39;36.47;99857.19;4971750;28;20520;-83
2023/04/06 10:58:38;;;;;;;20.17;15.83;;;;;;;15.53;37.75;99853.47;4970510;28;20094;-83
2023/04/06 11:01:05;;;;;;;20.42;14.90;;;;;;;15.63;37.08;99854.47;4970458;28;20081;-83
2023/04/06 11:03:43;;;;;;;20.58;14.52;;;;;;;15.72;36.49;99852.88;4972002;28;20109;-83
2023/04/06 11:06:09;;;;;;;20.98;15.18;;;;;;;15.91;37.41;99854.97;4970249;28;20100;-83
2023/04/06 11:08:37;;;;;;;20.13;13.73;;;;;;;16.12;37.12;99849.78;4970520;28;20055;-84
2023/04/06 11:11:16;;;;;;;18.02;13.95;;;;;;;16.42;36.60;99847.50;5002836;28;20437;-84
2023/04/06 11:13:44;;;;;;;16.10;13.13;;;;;;;16.87;38.21;99849.19;4971862;28;20069;-84
2023/04/06 11:16:21;;;;;;;16.42;12.88;;;;;;;17.39;35.35;99847.66;4971194;28;20549;-84
2023/04/06 11:19:02;;;;;;;19.27;13.60;;;;;;;17.91;34.71;99841.50;4971590;28;20066;-84
2023/04/06 11:21:38;;;;;;;18.60;12.98;;;;;;;18.24;32.12;99842.19;5002652;28;20061;-84
2023/04/06 11:27:31;;;;;;;15.32;11.85;;;;;;;18.46;33.48;99837.63;4971525;28;20141;-84
2023/04/06 11:29:59;;;;;;;16.25;12.35;;;;;;;18.34;32.72;99829.78;4971142;28;20522;-83
2023/04/06 11:32:26;;;;;;;19.00;12.43;;;;;;;18.23;33.35;99836.06;4971600;28;20071;-84
2023/04/06 11:34:53;;;;;;;13.50;11.30;;;;;;;18.08;32.77;99835.59;4971075;28;20468;-84
2023/04/06 11:37:19;;;;;;;15.95;11.30;;;;;;;17.92;32.65;99833.38;4971077;28;20339;-84